Weather in Lodz

0959 UTC 21 June 2018 EPLL 210930Z 21010KT 160V270 CAVOK 28/12 Q1011

Where pilots are born

  • Maxime from Belgium

    I would like to thank you again Bartolini Air for their professionalism and commitment. It is a high quality training with...

  • Fraser Johnston, First Officer, Loganair

    The team at Bartolini never promised more than they could deliver, and I achieved each element of my training within the...

  • Michele from Italy

    „The best”

22000+

Operations per year

1500+

Number of trained pilots

55+

Nationality students

How to join the training?